JLY7316 SBFL-SBBR
Flight info
| Callsign | JLY7316 |
|---|---|
| Flight time | 1h 43m |
| Altitude | 37000 |
| Route | ENSUG UZ93 USVEL DCT IMTBI UZ5 VUDOT |
| Aircraft | A320/M-SDE3FGHIRWY/LB1 |
Departure
| Time | 2026-05-08 00:11 |
|---|---|
| Airport | Hercílio Luz International Airport (SBFL) |
Arrival
| Time | 2026-05-08 01:54 |
|---|---|
| Airport | Presidente Juscelino Kubitschek International Airport (SBBR) |
| Time | Latitude | Longitude | Altitude | Speed | Heading |
|---|---|---|---|---|---|
| 2026-05-07 23:53 | -27.67282 | -48.54542 | 29 ft | 0 kts | 212° |
| 2026-05-07 23:59 | -27.67272 | -48.54535 | 29 ft | 4 kts | 204° |
| 2026-05-07 23:59 | -27.67248 | -48.54529 | 29 ft | 4 kts | 163° |
| 2026-05-07 23:59 | -27.67230 | -48.54542 | 29 ft | 1 kts | 122° |
| 2026-05-07 23:59 | -27.67227 | -48.54547 | 29 ft | 0 kts | 122° |
| 2026-05-08 00:06 | -27.67232 | -48.54538 | 29 ft | 6 kts | 122° |
| 2026-05-08 00:06 | -27.67255 | -48.54497 | 29 ft | 6 kts | 122° |
| 2026-05-08 00:06 | -27.67274 | -48.54464 | 29 ft | 4 kts | 122° |
| 2026-05-08 00:06 | -27.67298 | -48.54417 | 29 ft | 10 kts | 112° |
| 2026-05-08 00:07 | -27.67248 | -48.54347 | 29 ft | 15 kts | 30° |
| 2026-05-08 00:07 | -27.67235 | -48.54249 | 28 ft | 15 kts | 120° |
| 2026-05-08 00:07 | -27.67285 | -48.54154 | 28 ft | 13 kts | 121° |
| 2026-05-08 00:07 | -27.67331 | -48.54070 | 28 ft | 12 kts | 122° |
| 2026-05-08 00:08 | -27.67374 | -48.53990 | 27 ft | 13 kts | 121° |
| 2026-05-08 00:08 | -27.67431 | -48.53885 | 27 ft | 18 kts | 121° |
| 2026-05-08 00:08 | -27.67505 | -48.53749 | 27 ft | 23 kts | 120° |
| 2026-05-08 00:08 | -27.67587 | -48.53596 | 27 ft | 23 kts | 121° |
| 2026-05-08 00:09 | -27.67668 | -48.53446 | 28 ft | 22 kts | 121° |
| 2026-05-08 00:09 | -27.67749 | -48.53295 | 27 ft | 23 kts | 124° |
| 2026-05-08 00:09 | -27.67808 | -48.53152 | 24 ft | 17 kts | 70° |
| 2026-05-08 00:09 | -27.67720 | -48.53073 | 29 ft | 16 kts | 36° |
| 2026-05-08 00:10 | -27.67670 | -48.53083 | 27 ft | 0 kts | 302° |
| 2026-05-08 00:10 | -27.67630 | -48.53157 | 26 ft | 43 kts | 301° |
| 2026-05-08 00:10 | -27.67349 | -48.53678 | 23 ft | 110 kts | 301° |
| 2026-05-08 00:10 | -27.66860 | -48.54586 | 76 ft | 154 kts | 304° |
| 2026-05-08 00:11 | -27.66314 | -48.55610 | 716 ft | 151 kts | 302° |
| 2026-05-08 00:11 | -27.65779 | -48.56627 | 1365 ft | 149 kts | 304° |
| 2026-05-08 00:11 | -27.65255 | -48.57633 | 1956 ft | 149 kts | 306° |
| 2026-05-08 00:11 | -27.64840 | -48.58276 | 2160 ft | 158 kts | 322° |
| 2026-05-08 00:12 | -27.63805 | -48.58831 | 2348 ft | 178 kts | 351° |
| 2026-05-08 00:12 | -27.62492 | -48.58997 | 2555 ft | 203 kts | 354° |
| 2026-05-08 00:12 | -27.60483 | -48.59219 | 3057 ft | 233 kts | 354° |
| 2026-05-08 00:12 | -27.59379 | -48.59339 | 3518 ft | 238 kts | 354° |
| 2026-05-08 00:13 | -27.57714 | -48.59519 | 4327 ft | 243 kts | 353° |
| 2026-05-08 00:13 | -27.55459 | -48.59765 | 5388 ft | 247 kts | 351° |
| 2026-05-08 00:13 | -27.54325 | -48.59891 | 5959 ft | 248 kts | 351° |
| 2026-05-08 00:13 | -27.52597 | -48.60083 | 6756 ft | 251 kts | 351° |
| 2026-05-08 00:14 | -27.50849 | -48.60275 | 7511 ft | 254 kts | 352° |
| 2026-05-08 00:14 | -27.49073 | -48.60467 | 8236 ft | 259 kts | 352° |
| 2026-05-08 00:14 | -27.47267 | -48.60661 | 8970 ft | 263 kts | 353° |
| 2026-05-08 00:14 | -27.45436 | -48.60859 | 9711 ft | 266 kts | 353° |
| 2026-05-08 00:15 | -27.43564 | -48.61062 | 10216 ft | 278 kts | 353° |
| 2026-05-08 00:15 | -27.41556 | -48.61283 | 10388 ft | 301 kts | 353° |
| 2026-05-08 00:15 | -27.39395 | -48.61525 | 10514 ft | 324 kts | 353° |
| 2026-05-08 00:15 | -27.37082 | -48.61782 | 10625 ft | 344 kts | 353° |
| 2026-05-08 00:16 | -27.34635 | -48.62052 | 10765 ft | 362 kts | 353° |
| 2026-05-08 00:16 | -27.32097 | -48.62329 | 11160 ft | 369 kts | 353° |
| 2026-05-08 00:16 | -27.29528 | -48.62607 | 11684 ft | 373 kts | 354° |
| 2026-05-08 00:16 | -27.26935 | -48.62888 | 12223 ft | 376 kts | 354° |
| 2026-05-08 00:17 | -27.24320 | -48.63172 | 12771 ft | 379 kts | 354° |
| 2026-05-08 00:17 | -27.21691 | -48.63459 | 13310 ft | 381 kts | 354° |
| 2026-05-08 00:17 | -27.19042 | -48.63748 | 13828 ft | 384 kts | 354° |
| 2026-05-08 00:17 | -27.16376 | -48.64038 | 14292 ft | 386 kts | 354° |
| 2026-05-08 00:18 | -27.13690 | -48.64330 | 14772 ft | 389 kts | 354° |
| 2026-05-08 00:18 | -27.10987 | -48.64624 | 15201 ft | 391 kts | 354° |
| 2026-05-08 00:18 | -27.08269 | -48.64917 | 15604 ft | 394 kts | 353° |
| 2026-05-08 00:18 | -27.05573 | -48.65208 | 16021 ft | 396 kts | 353° |
| 2026-05-08 00:19 | -27.02823 | -48.65506 | 16472 ft | 398 kts | 353° |
| 2026-05-08 00:19 | -27.00056 | -48.65805 | 16891 ft | 400 kts | 353° |
| 2026-05-08 00:19 | -26.97277 | -48.66106 | 17294 ft | 403 kts | 353° |
| 2026-05-08 00:19 | -26.94483 | -48.66411 | 17698 ft | 405 kts | 353° |
| 2026-05-08 00:20 | -26.91670 | -48.66717 | 18106 ft | 407 kts | 353° |
| 2026-05-08 00:20 | -26.88838 | -48.67022 | 18453 ft | 410 kts | 352° |
| 2026-05-08 00:20 | -26.85994 | -48.67333 | 18774 ft | 412 kts | 352° |
| 2026-05-08 00:20 | -26.83132 | -48.67642 | 19086 ft | 414 kts | 352° |
| 2026-05-08 00:21 | -26.80252 | -48.67951 | 19397 ft | 417 kts | 352° |
| 2026-05-08 00:21 | -26.77349 | -48.68266 | 19702 ft | 420 kts | 352° |
| 2026-05-08 00:21 | -26.74431 | -48.68585 | 19993 ft | 422 kts | 352° |
| 2026-05-08 00:21 | -26.71501 | -48.68907 | 20315 ft | 425 kts | 351° |
| 2026-05-08 00:22 | -26.68539 | -48.69232 | 20599 ft | 427 kts | 351° |
| 2026-05-08 00:22 | -26.65572 | -48.69553 | 20882 ft | 430 kts | 351° |
| 2026-05-08 00:22 | -26.62591 | -48.69873 | 21155 ft | 432 kts | 351° |
| 2026-05-08 00:22 | -26.59588 | -48.70194 | 21407 ft | 434 kts | 351° |
| 2026-05-08 00:23 | -26.56566 | -48.70517 | 21654 ft | 437 kts | 351° |
| 2026-05-08 00:23 | -26.53530 | -48.70841 | 21902 ft | 439 kts | 351° |
| 2026-05-08 00:23 | -26.50517 | -48.71164 | 22154 ft | 441 kts | 351° |
| 2026-05-08 00:23 | -26.47445 | -48.71493 | 22401 ft | 443 kts | 351° |
| 2026-05-08 00:24 | -26.44361 | -48.71823 | 22643 ft | 445 kts | 351° |
| 2026-05-08 00:24 | -26.41266 | -48.72160 | 22876 ft | 447 kts | 351° |
| 2026-05-08 00:24 | -26.38163 | -48.72500 | 23094 ft | 449 kts | 351° |
| 2026-05-08 00:24 | -26.35039 | -48.72839 | 23303 ft | 452 kts | 351° |
| 2026-05-08 00:25 | -26.31945 | -48.73171 | 23492 ft | 454 kts | 351° |
| 2026-05-08 00:25 | -26.28796 | -48.73506 | 23675 ft | 455 kts | 351° |
| 2026-05-08 00:25 | -26.25637 | -48.73840 | 23858 ft | 457 kts | 351° |
| 2026-05-08 00:25 | -26.22471 | -48.74175 | 24047 ft | 458 kts | 351° |
| 2026-05-08 00:26 | -26.19293 | -48.74514 | 24232 ft | 459 kts | 351° |
| 2026-05-08 00:26 | -26.16110 | -48.74854 | 24405 ft | 460 kts | 351° |
| 2026-05-08 00:26 | -26.12922 | -48.75196 | 24572 ft | 461 kts | 351° |
| 2026-05-08 00:26 | -26.09727 | -48.75547 | 24846 ft | 460 kts | 350° |
| 2026-05-08 00:27 | -26.06553 | -48.75939 | 25116 ft | 459 kts | 349° |
| 2026-05-08 00:27 | -26.03390 | -48.76366 | 25369 ft | 458 kts | 349° |
| 2026-05-08 00:27 | -26.00231 | -48.76812 | 25652 ft | 457 kts | 348° |
| 2026-05-08 00:27 | -25.97081 | -48.77263 | 25932 ft | 456 kts | 348° |
| 2026-05-08 00:28 | -25.93926 | -48.77715 | 26206 ft | 456 kts | 348° |
| 2026-05-08 00:28 | -25.90775 | -48.78157 | 26453 ft | 456 kts | 348° |
| 2026-05-08 00:28 | -25.87667 | -48.78582 | 26701 ft | 456 kts | 349° |
| 2026-05-08 00:28 | -25.84518 | -48.79000 | 26973 ft | 456 kts | 349° |
| 2026-05-08 00:29 | -25.81362 | -48.79416 | 27254 ft | 456 kts | 349° |
| 2026-05-08 00:29 | -25.78218 | -48.79831 | 27559 ft | 455 kts | 349° |
| 2026-05-08 00:29 | -25.75078 | -48.80248 | 27837 ft | 454 kts | 348° |
| 2026-05-08 00:29 | -25.71942 | -48.80668 | 28056 ft | 454 kts | 348° |
| 2026-05-08 00:30 | -25.68795 | -48.81091 | 28313 ft | 454 kts | 348° |
| 2026-05-08 00:30 | -25.65662 | -48.81511 | 28610 ft | 454 kts | 348° |
| 2026-05-08 00:30 | -25.62528 | -48.81930 | 28927 ft | 453 kts | 348° |
| 2026-05-08 00:30 | -25.59395 | -48.82348 | 29229 ft | 453 kts | 348° |
| 2026-05-08 00:31 | -25.56272 | -48.82764 | 29556 ft | 452 kts | 348° |
| 2026-05-08 00:31 | -25.53142 | -48.83184 | 29877 ft | 452 kts | 348° |
| 2026-05-08 00:31 | -25.50028 | -48.83604 | 30167 ft | 451 kts | 348° |
| 2026-05-08 00:31 | -25.46954 | -48.84017 | 30407 ft | 451 kts | 348° |
| 2026-05-08 00:32 | -25.43837 | -48.84431 | 30640 ft | 451 kts | 348° |
| 2026-05-08 00:32 | -25.40719 | -48.84839 | 30887 ft | 451 kts | 348° |
| 2026-05-08 00:32 | -25.37607 | -48.85243 | 31138 ft | 450 kts | 348° |
| 2026-05-08 00:32 | -25.34490 | -48.85647 | 31404 ft | 450 kts | 348° |
| 2026-05-08 00:33 | -25.31375 | -48.86050 | 31634 ft | 450 kts | 348° |
| 2026-05-08 00:33 | -25.28270 | -48.86453 | 31907 ft | 449 kts | 348° |
| 2026-05-08 00:33 | -25.25170 | -48.86855 | 32189 ft | 449 kts | 348° |
| 2026-05-08 00:33 | -25.22050 | -48.87260 | 32458 ft | 449 kts | 348° |
| 2026-05-08 00:34 | -25.18992 | -48.87656 | 32722 ft | 448 kts | 348° |
| 2026-05-08 00:34 | -25.15856 | -48.88062 | 32999 ft | 448 kts | 347° |
| 2026-05-08 00:34 | -25.12802 | -48.88461 | 33260 ft | 447 kts | 347° |
| 2026-05-08 00:34 | -25.09713 | -48.88866 | 33527 ft | 447 kts | 347° |
| 2026-05-08 00:35 | -25.06623 | -48.89272 | 33781 ft | 446 kts | 347° |
| 2026-05-08 00:35 | -25.03545 | -48.89675 | 34031 ft | 446 kts | 347° |
| 2026-05-08 00:35 | -25.00459 | -48.90078 | 34207 ft | 447 kts | 347° |
| 2026-05-08 00:35 | -24.97365 | -48.90482 | 34399 ft | 448 kts | 347° |
| 2026-05-08 00:36 | -24.94266 | -48.90884 | 34624 ft | 448 kts | 346° |
| 2026-05-08 00:36 | -24.91167 | -48.91282 | 34856 ft | 447 kts | 346° |
| 2026-05-08 00:36 | -24.88082 | -48.91676 | 35073 ft | 446 kts | 346° |
| 2026-05-08 00:36 | -24.85000 | -48.92072 | 35287 ft | 446 kts | 346° |
| 2026-05-08 00:37 | -24.81925 | -48.92469 | 35497 ft | 445 kts | 346° |
| 2026-05-08 00:37 | -24.78845 | -48.92869 | 35646 ft | 446 kts | 346° |
| 2026-05-08 00:37 | -24.75761 | -48.93271 | 35798 ft | 447 kts | 346° |
| 2026-05-08 00:38 | -24.69585 | -48.94069 | 36200 ft | 446 kts | 345° |
| 2026-05-08 00:38 | -24.66543 | -48.94458 | 36392 ft | 446 kts | 345° |
| 2026-05-08 00:38 | -24.63467 | -48.94852 | 36592 ft | 445 kts | 345° |
| 2026-05-08 00:38 | -24.60392 | -48.95246 | 36782 ft | 444 kts | 345° |
| 2026-05-08 00:39 | -24.57326 | -48.95642 | 36941 ft | 444 kts | 345° |
| 2026-05-08 00:39 | -24.51148 | -48.96446 | 36986 ft | 450 kts | 345° |
| 2026-05-08 00:40 | -24.44889 | -48.97251 | 36987 ft | 453 kts | 345° |
| 2026-05-08 00:40 | -24.38658 | -48.98043 | 36981 ft | 453 kts | 345° |
| 2026-05-08 00:41 | -24.32398 | -48.98851 | 36985 ft | 453 kts | 345° |
| 2026-05-08 00:41 | -24.26128 | -48.99662 | 36992 ft | 454 kts | 345° |
| 2026-05-08 00:42 | -24.19851 | -49.00463 | 36993 ft | 454 kts | 345° |
| 2026-05-08 00:42 | -24.13558 | -49.01266 | 37001 ft | 455 kts | 345° |
| 2026-05-08 00:43 | -24.07257 | -49.02075 | 36993 ft | 455 kts | 345° |
| 2026-05-08 00:43 | -24.00960 | -49.02880 | 37003 ft | 455 kts | 345° |
| 2026-05-08 00:44 | -23.94694 | -49.03681 | 37006 ft | 455 kts | 345° |
| 2026-05-08 00:44 | -23.88401 | -49.04479 | 36990 ft | 455 kts | 345° |
| 2026-05-08 00:45 | -23.82098 | -49.05277 | 36989 ft | 455 kts | 345° |
| 2026-05-08 00:45 | -23.75805 | -49.06084 | 36986 ft | 455 kts | 345° |
| 2026-05-08 00:46 | -23.69501 | -49.06893 | 36984 ft | 456 kts | 345° |
| 2026-05-08 00:46 | -23.63201 | -49.07692 | 36973 ft | 456 kts | 346° |
| 2026-05-08 00:47 | -23.56888 | -49.08491 | 36977 ft | 457 kts | 346° |
| 2026-05-08 00:47 | -23.50568 | -49.09287 | 36981 ft | 457 kts | 346° |
| 2026-05-08 00:48 | -23.44245 | -49.10089 | 36986 ft | 457 kts | 346° |
| 2026-05-08 00:48 | -23.37912 | -49.10886 | 36972 ft | 459 kts | 347° |
| 2026-05-08 00:49 | -23.31609 | -49.11682 | 36977 ft | 459 kts | 347° |
| 2026-05-08 00:49 | -23.25256 | -49.12478 | 36979 ft | 460 kts | 347° |
| 2026-05-08 00:50 | -23.18891 | -49.13283 | 36977 ft | 460 kts | 347° |
| 2026-05-08 00:50 | -23.12515 | -49.14095 | 36971 ft | 461 kts | 347° |
| 2026-05-08 00:51 | -23.06133 | -49.14905 | 36972 ft | 462 kts | 347° |
| 2026-05-08 00:51 | -22.99739 | -49.15707 | 36976 ft | 463 kts | 347° |
| 2026-05-08 00:52 | -22.93331 | -49.16511 | 36967 ft | 463 kts | 347° |
| 2026-05-08 00:52 | -22.86907 | -49.17312 | 36960 ft | 465 kts | 347° |
| 2026-05-08 00:53 | -22.80520 | -49.18110 | 36966 ft | 465 kts | 347° |
| 2026-05-08 00:53 | -22.74074 | -49.18924 | 36967 ft | 466 kts | 347° |
| 2026-05-08 00:54 | -22.67629 | -49.19728 | 36955 ft | 466 kts | 347° |
| 2026-05-08 00:54 | -22.61177 | -49.20529 | 36964 ft | 467 kts | 347° |
| 2026-05-08 00:55 | -22.54619 | -49.20422 | 36969 ft | 480 kts | 6° |
| 2026-05-08 00:55 | -22.48137 | -49.18627 | 36994 ft | 484 kts | 9° |
| 2026-05-08 00:56 | -22.41613 | -49.16765 | 36990 ft | 485 kts | 9° |
| 2026-05-08 00:56 | -22.35079 | -49.14973 | 37001 ft | 484 kts | 8° |
| 2026-05-08 00:57 | -22.28515 | -49.13368 | 37006 ft | 483 kts | 7° |
| 2026-05-08 00:57 | -22.21934 | -49.11813 | 37003 ft | 483 kts | 7° |
| 2026-05-08 00:58 | -22.15368 | -49.10215 | 36998 ft | 484 kts | 8° |
| 2026-05-08 00:58 | -22.08808 | -49.08575 | 36992 ft | 484 kts | 8° |
| 2026-05-08 00:59 | -22.02279 | -49.06953 | 36984 ft | 484 kts | 8° |
| 2026-05-08 00:59 | -21.95709 | -49.05331 | 36978 ft | 484 kts | 8° |
| 2026-05-08 01:00 | -21.89127 | -49.03716 | 36972 ft | 484 kts | 8° |
| 2026-05-08 01:00 | -21.82549 | -49.02107 | 36978 ft | 485 kts | 7° |
| 2026-05-08 01:01 | -21.77077 | -49.00760 | 36979 ft | 485 kts | 8° |
| 2026-05-08 01:01 | -21.69397 | -48.98860 | 36979 ft | 485 kts | 8° |
| 2026-05-08 01:02 | -21.62815 | -48.97327 | 36967 ft | 483 kts | 5° |
| 2026-05-08 01:02 | -21.57314 | -48.96392 | 36976 ft | 481 kts | 2° |
| 2026-05-08 01:03 | -21.50667 | -48.95471 | 36983 ft | 481 kts | 2° |
| 2026-05-08 01:03 | -21.44036 | -48.94495 | 36987 ft | 481 kts | 3° |
| 2026-05-08 01:04 | -21.37412 | -48.93421 | 36977 ft | 482 kts | 4° |
| 2026-05-08 01:04 | -21.30773 | -48.92330 | 36988 ft | 482 kts | 4° |
| 2026-05-08 01:05 | -21.24176 | -48.91261 | 36994 ft | 482 kts | 4° |
| 2026-05-08 01:05 | -21.17536 | -48.90209 | 36999 ft | 482 kts | 3° |
| 2026-05-08 01:06 | -21.10881 | -48.89158 | 36992 ft | 482 kts | 4° |
| 2026-05-08 01:06 | -21.04242 | -48.88099 | 36996 ft | 482 kts | 4° |
| 2026-05-08 01:07 | -20.97600 | -48.87032 | 36997 ft | 482 kts | 4° |
| 2026-05-08 01:07 | -20.90948 | -48.85966 | 37002 ft | 483 kts | 4° |
| 2026-05-08 01:08 | -20.84300 | -48.84911 | 37000 ft | 483 kts | 4° |
| 2026-05-08 01:08 | -20.77692 | -48.83867 | 37000 ft | 483 kts | 4° |
| 2026-05-08 01:09 | -20.71045 | -48.82807 | 36999 ft | 483 kts | 4° |
| 2026-05-08 01:09 | -20.64402 | -48.81812 | 37002 ft | 481 kts | 1° |
| 2026-05-08 01:10 | -20.57735 | -48.81124 | 36991 ft | 480 kts | 360° |
| 2026-05-08 01:10 | -20.51065 | -48.80531 | 36993 ft | 481 kts | 0° |
| 2026-05-08 01:11 | -20.44392 | -48.79868 | 37006 ft | 482 kts | 1° |
| 2026-05-08 01:11 | -20.37757 | -48.79157 | 37009 ft | 482 kts | 1° |
| 2026-05-08 01:12 | -20.31080 | -48.78436 | 37004 ft | 482 kts | 1° |
| 2026-05-08 01:12 | -20.24394 | -48.77738 | 37009 ft | 483 kts | 1° |
| 2026-05-08 01:13 | -20.17699 | -48.77044 | 37016 ft | 483 kts | 1° |
| 2026-05-08 01:13 | -20.11008 | -48.76345 | 37018 ft | 483 kts | 1° |
| 2026-05-08 01:14 | -20.04314 | -48.75649 | 37014 ft | 483 kts | 1° |
| 2026-05-08 01:14 | -19.97614 | -48.74947 | 37020 ft | 484 kts | 1° |
| 2026-05-08 01:15 | -19.90913 | -48.74242 | 37022 ft | 484 kts | 1° |
| 2026-05-08 01:15 | -19.84259 | -48.73543 | 37027 ft | 484 kts | 1° |
| 2026-05-08 01:16 | -19.77562 | -48.72854 | 37027 ft | 484 kts | 1° |
| 2026-05-08 01:16 | -19.70860 | -48.72156 | 37032 ft | 484 kts | 1° |
| 2026-05-08 01:17 | -19.64158 | -48.71456 | 37035 ft | 484 kts | 1° |
| 2026-05-08 01:17 | -19.57453 | -48.70759 | 37038 ft | 484 kts | 1° |
| 2026-05-08 01:18 | -19.50748 | -48.70063 | 37040 ft | 484 kts | 1° |
| 2026-05-08 01:18 | -19.44034 | -48.69367 | 37043 ft | 484 kts | 1° |
| 2026-05-08 01:19 | -19.37326 | -48.68666 | 37042 ft | 484 kts | 1° |
| 2026-05-08 01:19 | -19.30625 | -48.67969 | 37032 ft | 484 kts | 1° |
| 2026-05-08 01:20 | -19.23922 | -48.67277 | 37036 ft | 484 kts | 1° |
| 2026-05-08 01:20 | -19.17211 | -48.66586 | 37044 ft | 484 kts | 1° |
| 2026-05-08 01:21 | -19.10545 | -48.65937 | 37043 ft | 484 kts | 0° |
| 2026-05-08 01:21 | -19.03841 | -48.65343 | 37042 ft | 484 kts | 0° |
| 2026-05-08 01:22 | -18.97123 | -48.64755 | 37041 ft | 484 kts | 0° |
| 2026-05-08 01:22 | -18.90403 | -48.64150 | 37042 ft | 485 kts | 0° |
| 2026-05-08 01:23 | -18.83672 | -48.63536 | 37046 ft | 485 kts | 0° |
| 2026-05-08 01:23 | -18.76943 | -48.62919 | 37043 ft | 486 kts | 0° |
| 2026-05-08 01:24 | -18.70203 | -48.62308 | 37046 ft | 486 kts | 0° |
| 2026-05-08 01:24 | -18.63454 | -48.61701 | 37045 ft | 486 kts | 0° |
| 2026-05-08 01:25 | -18.56712 | -48.61095 | 37045 ft | 486 kts | 0° |
| 2026-05-08 01:25 | -18.50016 | -48.60486 | 37035 ft | 486 kts | 0° |
| 2026-05-08 01:26 | -18.43274 | -48.59878 | 37034 ft | 486 kts | 0° |
| 2026-05-08 01:26 | -18.36518 | -48.59271 | 37032 ft | 486 kts | 0° |
| 2026-05-08 01:27 | -18.29783 | -48.58418 | 37031 ft | 491 kts | 10° |
| 2026-05-08 01:27 | -18.23226 | -48.56292 | 37022 ft | 493 kts | 14° |
| 2026-05-08 01:28 | -18.16676 | -48.54113 | 37026 ft | 494 kts | 14° |
| 2026-05-08 01:28 | -18.10114 | -48.51949 | 37027 ft | 494 kts | 14° |
| 2026-05-08 01:29 | -18.03547 | -48.49784 | 37028 ft | 494 kts | 14° |
| 2026-05-08 01:29 | -17.96981 | -48.47611 | 37022 ft | 495 kts | 14° |
| 2026-05-08 01:30 | -17.90454 | -48.45462 | 37034 ft | 495 kts | 14° |
| 2026-05-08 01:30 | -17.83886 | -48.43295 | 37038 ft | 495 kts | 14° |
| 2026-05-08 01:31 | -17.77312 | -48.41118 | 37042 ft | 495 kts | 14° |
| 2026-05-08 01:31 | -17.70725 | -48.38942 | 37045 ft | 496 kts | 14° |
| 2026-05-08 01:32 | -17.64143 | -48.36781 | 37045 ft | 496 kts | 14° |
| 2026-05-08 01:32 | -17.57544 | -48.34614 | 37042 ft | 496 kts | 14° |
| 2026-05-08 01:33 | -17.50948 | -48.32443 | 37051 ft | 497 kts | 14° |
| 2026-05-08 01:33 | -17.44351 | -48.30276 | 37051 ft | 497 kts | 14° |
| 2026-05-08 01:34 | -17.37759 | -48.28110 | 36815 ft | 496 kts | 14° |
| 2026-05-08 01:34 | -17.34466 | -48.27029 | 36305 ft | 496 kts | 14° |
| 2026-05-08 01:34 | -17.31198 | -48.25959 | 35391 ft | 499 kts | 15° |
| 2026-05-08 01:34 | -17.27869 | -48.24871 | 34426 ft | 502 kts | 15° |
| 2026-05-08 01:35 | -17.24527 | -48.23777 | 33478 ft | 503 kts | 16° |
| 2026-05-08 01:35 | -17.21173 | -48.22679 | 32386 ft | 505 kts | 16° |
| 2026-05-08 01:35 | -17.17821 | -48.21582 | 31292 ft | 506 kts | 16° |
| 2026-05-08 01:35 | -17.14464 | -48.20483 | 30398 ft | 503 kts | 16° |
| 2026-05-08 01:36 | -17.11129 | -48.19390 | 29076 ft | 499 kts | 17° |
| 2026-05-08 01:36 | -17.07811 | -48.18302 | 27433 ft | 502 kts | 17° |
| 2026-05-08 01:36 | -17.04483 | -48.17213 | 26319 ft | 500 kts | 17° |
| 2026-05-08 01:36 | -17.01152 | -48.16124 | 25091 ft | 502 kts | 17° |
| 2026-05-08 01:37 | -16.97813 | -48.15031 | 23907 ft | 502 kts | 18° |
| 2026-05-08 01:37 | -16.94473 | -48.13937 | 22650 ft | 502 kts | 18° |
| 2026-05-08 01:37 | -16.91175 | -48.12858 | 21915 ft | 491 kts | 18° |
| 2026-05-08 01:37 | -16.87939 | -48.11806 | 21083 ft | 484 kts | 18° |
| 2026-05-08 01:38 | -16.84750 | -48.10772 | 20297 ft | 476 kts | 18° |
| 2026-05-08 01:38 | -16.81602 | -48.09763 | 19537 ft | 470 kts | 16° |
| 2026-05-08 01:38 | -16.78415 | -48.09141 | 18820 ft | 463 kts | 6° |
| 2026-05-08 01:38 | -16.75288 | -48.09075 | 17619 ft | 451 kts | 356° |
| 2026-05-08 01:39 | -16.72227 | -48.09591 | 16346 ft | 441 kts | 348° |
| 2026-05-08 01:39 | -16.69305 | -48.10287 | 15652 ft | 419 kts | 348° |
| 2026-05-08 01:39 | -16.66486 | -48.10944 | 14961 ft | 413 kts | 348° |
| 2026-05-08 01:39 | -16.63680 | -48.11584 | 14279 ft | 413 kts | 348° |
| 2026-05-08 01:40 | -16.60879 | -48.12211 | 13580 ft | 411 kts | 348° |
| 2026-05-08 01:40 | -16.58092 | -48.12831 | 12896 ft | 407 kts | 348° |
| 2026-05-08 01:40 | -16.55338 | -48.13443 | 12251 ft | 402 kts | 348° |
| 2026-05-08 01:40 | -16.52618 | -48.14051 | 11600 ft | 397 kts | 348° |
| 2026-05-08 01:41 | -16.49959 | -48.14649 | 11304 ft | 383 kts | 348° |
| 2026-05-08 01:41 | -16.47420 | -48.15225 | 11182 ft | 364 kts | 348° |
| 2026-05-08 01:41 | -16.45003 | -48.15774 | 11065 ft | 347 kts | 348° |
| 2026-05-08 01:41 | -16.42723 | -48.16293 | 10945 ft | 331 kts | 348° |
| 2026-05-08 01:42 | -16.40489 | -48.16799 | 10829 ft | 317 kts | 348° |
| 2026-05-08 01:42 | -16.38418 | -48.17267 | 10699 ft | 297 kts | 348° |
| 2026-05-08 01:42 | -16.36447 | -48.17711 | 10313 ft | 284 kts | 348° |
| 2026-05-08 01:42 | -16.34533 | -48.18142 | 9983 ft | 278 kts | 348° |
| 2026-05-08 01:43 | -16.32647 | -48.18566 | 9862 ft | 277 kts | 348° |
| 2026-05-08 01:43 | -16.30759 | -48.18990 | 9735 ft | 278 kts | 348° |
| 2026-05-08 01:43 | -16.28872 | -48.19413 | 9604 ft | 277 kts | 348° |
| 2026-05-08 01:43 | -16.26982 | -48.19839 | 9481 ft | 277 kts | 348° |
| 2026-05-08 01:44 | -16.25101 | -48.20261 | 9353 ft | 277 kts | 348° |
| 2026-05-08 01:44 | -16.23217 | -48.20683 | 9230 ft | 277 kts | 348° |
| 2026-05-08 01:44 | -16.21334 | -48.21105 | 9103 ft | 276 kts | 348° |
| 2026-05-08 01:44 | -16.19476 | -48.21522 | 8976 ft | 268 kts | 348° |
| 2026-05-08 01:45 | -16.17693 | -48.21922 | 8849 ft | 257 kts | 348° |
| 2026-05-08 01:45 | -16.15977 | -48.22275 | 8726 ft | 246 kts | 355° |
| 2026-05-08 01:45 | -16.14296 | -48.22196 | 8599 ft | 241 kts | 12° |
| 2026-05-08 01:45 | -16.12668 | -48.21779 | 8478 ft | 241 kts | 13° |
| 2026-05-08 01:46 | -16.11042 | -48.21357 | 8359 ft | 240 kts | 13° |
| 2026-05-08 01:46 | -16.09421 | -48.20941 | 8237 ft | 240 kts | 13° |
| 2026-05-08 01:46 | -16.07820 | -48.20531 | 8125 ft | 240 kts | 13° |
| 2026-05-08 01:46 | -16.06200 | -48.20116 | 8008 ft | 240 kts | 14° |
| 2026-05-08 01:47 | -16.04581 | -48.19702 | 7892 ft | 239 kts | 14° |
| 2026-05-08 01:47 | -16.02963 | -48.19286 | 7775 ft | 239 kts | 14° |
| 2026-05-08 01:47 | -16.01345 | -48.18872 | 7661 ft | 239 kts | 14° |
| 2026-05-08 01:48 | -15.98119 | -48.18056 | 7441 ft | 238 kts | 13° |
| 2026-05-08 01:48 | -15.96502 | -48.17689 | 7401 ft | 238 kts | 12° |
| 2026-05-08 01:48 | -15.95428 | -48.17453 | 7347 ft | 238 kts | 12° |
| 2026-05-08 01:48 | -15.93804 | -48.17100 | 7233 ft | 238 kts | 12° |
| 2026-05-08 01:49 | -15.91643 | -48.16631 | 7067 ft | 237 kts | 12° |
| 2026-05-08 01:49 | -15.90578 | -48.16396 | 6984 ft | 237 kts | 13° |
| 2026-05-08 01:49 | -15.89077 | -48.15725 | 6854 ft | 239 kts | 37° |
| 2026-05-08 01:49 | -15.87997 | -48.14393 | 6725 ft | 243 kts | 63° |
| 2026-05-08 01:50 | -15.87624 | -48.12712 | 6579 ft | 236 kts | 84° |
| 2026-05-08 01:50 | -15.87523 | -48.11049 | 6453 ft | 223 kts | 84° |
| 2026-05-08 01:50 | -15.87430 | -48.09513 | 6381 ft | 202 kts | 84° |
| 2026-05-08 01:50 | -15.87343 | -48.08135 | 6246 ft | 183 kts | 83° |
| 2026-05-08 01:51 | -15.87262 | -48.06868 | 6041 ft | 169 kts | 83° |
| 2026-05-08 01:51 | -15.87187 | -48.05692 | 5855 ft | 159 kts | 83° |
| 2026-05-08 01:51 | -15.87116 | -48.04585 | 5684 ft | 155 kts | 83° |
| 2026-05-08 01:51 | -15.87045 | -48.03478 | 5482 ft | 153 kts | 83° |
| 2026-05-08 01:52 | -15.86974 | -48.02377 | 5293 ft | 152 kts | 83° |
| 2026-05-08 01:52 | -15.86904 | -48.01284 | 5104 ft | 151 kts | 84° |
| 2026-05-08 01:52 | -15.86835 | -48.00204 | 4915 ft | 150 kts | 84° |
| 2026-05-08 01:52 | -15.86765 | -47.99120 | 4718 ft | 150 kts | 85° |
| 2026-05-08 01:53 | -15.86696 | -47.98038 | 4525 ft | 150 kts | 85° |
| 2026-05-08 01:53 | -15.86627 | -47.96963 | 4326 ft | 150 kts | 84° |
| 2026-05-08 01:53 | -15.86561 | -47.95881 | 4123 ft | 150 kts | 86° |
| 2026-05-08 01:53 | -15.86490 | -47.94790 | 3880 ft | 152 kts | 85° |
| 2026-05-08 01:54 | -15.86417 | -47.93685 | 3673 ft | 154 kts | 86° |
| 2026-05-08 01:54 | -15.86344 | -47.92576 | 3477 ft | 154 kts | 86° |
| 2026-05-08 01:54 | -15.86283 | -47.91594 | 3465 ft | 112 kts | 86° |
| 2026-05-08 01:54 | -15.86248 | -47.91038 | 3476 ft | 42 kts | 86° |
| 2026-05-08 01:55 | -15.86286 | -47.90825 | 3484 ft | 19 kts | 125° |
| 2026-05-08 01:55 | -15.86368 | -47.90719 | 3485 ft | 16 kts | 131° |
| 2026-05-08 01:55 | -15.86422 | -47.90757 | 3482 ft | 11 kts | 262° |
| 2026-05-08 01:55 | -15.86427 | -47.90833 | 3484 ft | 10 kts | 266° |
| 2026-05-08 01:56 | -15.86432 | -47.90902 | 3481 ft | 12 kts | 266° |
| 2026-05-08 01:56 | -15.86439 | -47.91014 | 3483 ft | 20 kts | 266° |
| 2026-05-08 01:56 | -15.86449 | -47.91169 | 3482 ft | 22 kts | 265° |
| 2026-05-08 01:56 | -15.86460 | -47.91350 | 3470 ft | 29 kts | 266° |
| 2026-05-08 01:57 | -15.86471 | -47.91526 | 3465 ft | 19 kts | 266° |
| 2026-05-08 01:57 | -15.86512 | -47.91634 | 3467 ft | 14 kts | 189° |
| 2026-05-08 01:57 | -15.86598 | -47.91624 | 3471 ft | 10 kts | 177° |
| 2026-05-08 01:57 | -15.86675 | -47.91640 | 3472 ft | 11 kts | 240° |
| 2026-05-08 01:58 | -15.86687 | -47.91694 | 3474 ft | 5 kts | 250° |
| 2026-05-08 01:58 | -15.86692 | -47.91716 | 3476 ft | 5 kts | 264° |
| 2026-05-08 01:58 | -15.86710 | -47.91746 | 3476 ft | 4 kts | 233° |
| 2026-05-08 01:58 | -15.86718 | -47.91756 | 3476 ft | 0 kts | 232° |